sensor_id;sensor_type;location;lat;lon;timestamp;P1;durP1;ratioP1;P2;durP2;ratioP2
6133;SDS011;3098;42.678;23.364;2022-07-23T00:00:28;13.70;;;7.53;;
6133;SDS011;3098;42.678;23.364;2022-07-23T00:02:57;15.02;;;7.85;;
6133;SDS011;3098;42.678;23.364;2022-07-23T00:05:24;14.93;;;7.72;;
6133;SDS011;3098;42.678;23.364;2022-07-23T00:07:53;15.70;;;8.43;;
6133;SDS011;3098;42.678;23.364;2022-07-23T00:10:20;27.05;;;12.23;;
6133;SDS011;3098;42.678;23.364;2022-07-23T00:12:48;16.63;;;10.20;;
6133;SDS011;3098;42.678;23.364;2022-07-23T00:15:15;23.95;;;10.95;;
6133;SDS011;3098;42.678;23.364;2022-07-23T00:17:47;21.17;;;11.15;;
6133;SDS011;3098;42.678;23.364;2022-07-23T00:20:19;20.10;;;10.93;;
6133;SDS011;3098;42.678;23.364;2022-07-23T00:22:46;19.63;;;9.55;;
6133;SDS011;3098;42.678;23.364;2022-07-23T00:25:14;12.70;;;7.00;;
6133;SDS011;3098;42.678;23.364;2022-07-23T00:27:41;12.43;;;6.82;;
6133;SDS011;3098;42.678;23.364;2022-07-23T00:30:09;14.32;;;7.22;;
6133;SDS011;3098;42.678;23.364;2022-07-23T00:32:44;15.65;;;6.72;;
6133;SDS011;3098;42.678;23.364;2022-07-23T00:35:12;12.27;;;6.50;;
6133;SDS011;3098;42.678;23.364;2022-07-23T00:37:41;12.90;;;6.30;;
6133;SDS011;3098;42.678;23.364;2022-07-23T00:40:08;10.10;;;6.63;;
6133;SDS011;3098;42.678;23.364;2022-07-23T00:42:37;10.15;;;6.13;;
6133;SDS011;3098;42.678;23.364;2022-07-23T00:45:04;10.43;;;6.00;;
6133;SDS011;3098;42.678;23.364;2022-07-23T00:47:33;9.82;;;6.25;;
6133;SDS011;3098;42.678;23.364;2022-07-23T00:50:00;10.82;;;6.15;;
6133;SDS011;3098;42.678;23.364;2022-07-23T00:52:27;10.85;;;6.20;;
6133;SDS011;3098;42.678;23.364;2022-07-23T00:54:56;9.52;;;6.75;;
6133;SDS011;3098;42.678;23.364;2022-07-23T00:57:23;11.90;;;6.38;;
6133;SDS011;3098;42.678;23.364;2022-07-23T00:59:50;11.50;;;6.90;;
6133;SDS011;3098;42.678;23.364;2022-07-23T01:02:17;13.02;;;6.90;;
6133;SDS011;3098;42.678;23.364;2022-07-23T01:04:45;15.05;;;7.28;;
6133;SDS011;3098;42.678;23.364;2022-07-23T01:07:12;10.88;;;7.13;;
6133;SDS011;3098;42.678;23.364;2022-07-23T01:09:39;14.93;;;6.95;;
6133;SDS011;3098;42.678;23.364;2022-07-23T01:12:09;11.45;;;6.25;;
6133;SDS011;3098;42.678;23.364;2022-07-23T01:14:36;13.45;;;7.00;;
6133;SDS011;3098;42.678;23.364;2022-07-23T01:17:03;13.75;;;6.82;;
6133;SDS011;3098;42.678;23.364;2022-07-23T01:19:30;13.38;;;6.28;;
6133;SDS011;3098;42.678;23.364;2022-07-23T01:21:58;9.73;;;6.65;;
6133;SDS011;3098;42.678;23.364;2022-07-23T01:24:30;12.43;;;7.22;;
6133;SDS011;3098;42.678;23.364;2022-07-23T01:26:57;12.38;;;7.07;;
6133;SDS011;3098;42.678;23.364;2022-07-23T01:29:25;17.08;;;6.32;;
6133;SDS011;3098;42.678;23.364;2022-07-23T01:31:53;12.57;;;7.00;;
6133;SDS011;3098;42.678;23.364;2022-07-23T01:34:19;11.27;;;6.18;;
6133;SDS011;3098;42.678;23.364;2022-07-23T01:36:46;10.20;;;6.28;;
6133;SDS011;3098;42.678;23.364;2022-07-23T01:39:13;10.70;;;6.30;;
6133;SDS011;3098;42.678;23.364;2022-07-23T01:41:41;12.25;;;6.78;;
6133;SDS011;3098;42.678;23.364;2022-07-23T01:44:08;11.40;;;6.10;;
6133;SDS011;3098;42.678;23.364;2022-07-23T01:46:37;11.73;;;6.68;;
6133;SDS011;3098;42.678;23.364;2022-07-23T01:49:05;8.80;;;6.13;;
6133;SDS011;3098;42.678;23.364;2022-07-23T01:51:32;10.52;;;6.45;;
6133;SDS011;3098;42.678;23.364;2022-07-23T01:53:59;11.85;;;6.25;;
6133;SDS011;3098;42.678;23.364;2022-07-23T01:56:26;10.77;;;6.80;;
6133;SDS011;3098;42.678;23.364;2022-07-23T01:58:54;11.73;;;6.57;;
6133;SDS011;3098;42.678;23.364;2022-07-23T02:01:21;15.45;;;6.93;;
6133;SDS011;3098;42.678;23.364;2022-07-23T02:03:48;10.93;;;5.85;;
6133;SDS011;3098;42.678;23.364;2022-07-23T02:06:15;8.30;;;6.10;;
6133;SDS011;3098;42.678;23.364;2022-07-23T02:08:42;9.68;;;6.95;;
6133;SDS011;3098;42.678;23.364;2022-07-23T02:11:09;11.50;;;6.30;;
6133;SDS011;3098;42.678;23.364;2022-07-23T02:13:36;9.18;;;6.22;;
6133;SDS011;3098;42.678;23.364;2022-07-23T02:16:05;9.85;;;6.90;;
6133;SDS011;3098;42.678;23.364;2022-07-23T02:18:32;11.60;;;6.45;;
6133;SDS011;3098;42.678;23.364;2022-07-23T02:21:00;12.43;;;7.10;;
6133;SDS011;3098;42.678;23.364;2022-07-23T02:23:28;11.25;;;7.30;;
6133;SDS011;3098;42.678;23.364;2022-07-23T02:25:55;9.73;;;6.32;;
6133;SDS011;3098;42.678;23.364;2022-07-23T02:28:22;13.32;;;6.97;;
6133;SDS011;3098;42.678;23.364;2022-07-23T02:30:50;16.15;;;6.60;;
6133;SDS011;3098;42.678;23.364;2022-07-23T02:33:19;13.10;;;7.18;;
6133;SDS011;3098;42.678;23.364;2022-07-23T02:35:46;10.18;;;7.38;;
6133;SDS011;3098;42.678;23.364;2022-07-23T02:38:14;12.43;;;6.65;;
6133;SDS011;3098;42.678;23.364;2022-07-23T02:40:41;10.80;;;6.60;;
6133;SDS011;3098;42.678;23.364;2022-07-23T02:43:08;10.10;;;6.13;;
6133;SDS011;3098;42.678;23.364;2022-07-23T02:45:35;9.45;;;6.75;;
6133;SDS011;3098;42.678;23.364;2022-07-23T02:48:02;13.55;;;7.20;;
6133;SDS011;3098;42.678;23.364;2022-07-23T02:50:32;14.10;;;6.82;;
6133;SDS011;3098;42.678;23.364;2022-07-23T02:52:59;11.25;;;6.80;;
6133;SDS011;3098;42.678;23.364;2022-07-23T02:55:27;11.80;;;7.60;;
6133;SDS011;3098;42.678;23.364;2022-07-23T02:57:54;13.23;;;8.32;;
6133;SDS011;3098;42.678;23.364;2022-07-23T03:00:21;12.43;;;7.30;;
6133;SDS011;3098;42.678;23.364;2022-07-23T03:02:53;15.05;;;7.03;;
6133;SDS011;3098;42.678;23.364;2022-07-23T03:05:25;19.23;;;8.57;;
6133;SDS011;3098;42.678;23.364;2022-07-23T03:07:54;17.13;;;9.20;;
6133;SDS011;3098;42.678;23.364;2022-07-23T03:10:21;17.83;;;9.20;;
6133;SDS011;3098;42.678;23.364;2022-07-23T03:12:48;17.63;;;9.27;;
6133;SDS011;3098;42.678;23.364;2022-07-23T03:15:15;15.55;;;9.18;;
6133;SDS011;3098;42.678;23.364;2022-07-23T03:17:42;21.08;;;9.73;;
6133;SDS011;3098;42.678;23.364;2022-07-23T03:20:09;20.60;;;9.82;;
6133;SDS011;3098;42.678;23.364;2022-07-23T03:22:37;16.88;;;9.27;;
6133;SDS011;3098;42.678;23.364;2022-07-23T03:25:06;24.30;;;10.07;;
6133;SDS011;3098;42.678;23.364;2022-07-23T03:27:34;18.63;;;9.45;;
6133;SDS011;3098;42.678;23.364;2022-07-23T03:30:01;21.80;;;9.63;;
6133;SDS011;3098;42.678;23.364;2022-07-23T03:32:28;11.43;;;8.80;;
6133;SDS011;3098;42.678;23.364;2022-07-23T03:34:56;16.52;;;9.55;;
6133;SDS011;3098;42.678;23.364;2022-07-23T03:37:24;17.70;;;9.65;;
6133;SDS011;3098;42.678;23.364;2022-07-23T03:39:52;17.60;;;9.70;;
6133;SDS011;3098;42.678;23.364;2022-07-23T03:42:20;15.10;;;9.27;;
6133;SDS011;3098;42.678;23.364;2022-07-23T03:44:47;18.15;;;9.23;;
6133;SDS011;3098;42.678;23.364;2022-07-23T03:47:14;19.50;;;8.65;;
6133;SDS011;3098;42.678;23.364;2022-07-23T03:49:42;27.30;;;9.27;;
6133;SDS011;3098;42.678;23.364;2022-07-23T03:52:09;16.90;;;9.40;;
6133;SDS011;3098;42.678;23.364;2022-07-23T03:54:37;14.63;;;8.95;;
6133;SDS011;3098;42.678;23.364;2022-07-23T03:57:04;19.00;;;9.57;;
6133;SDS011;3098;42.678;23.364;2022-07-23T03:59:32;13.40;;;9.63;;
6133;SDS011;3098;42.678;23.364;2022-07-23T04:02:00;16.50;;;9.00;;
6133;SDS011;3098;42.678;23.364;2022-07-23T04:04:27;23.48;;;10.10;;
6133;SDS011;3098;42.678;23.364;2022-07-23T04:06:54;14.20;;;8.30;;
6133;SDS011;3098;42.678;23.364;2022-07-23T04:09:21;21.08;;;10.23;;
6133;SDS011;3098;42.678;23.364;2022-07-23T04:11:48;25.73;;;15.30;;
6133;SDS011;3098;42.678;23.364;2022-07-23T04:14:15;19.40;;;12.43;;
6133;SDS011;3098;42.678;23.364;2022-07-23T04:16:43;23.08;;;14.95;;
6133;SDS011;3098;42.678;23.364;2022-07-23T04:19:12;15.98;;;10.88;;
6133;SDS011;3098;42.678;23.364;2022-07-23T04:21:39;23.67;;;8.63;;
6133;SDS011;3098;42.678;23.364;2022-07-23T04:24:06;14.88;;;8.85;;
6133;SDS011;3098;42.678;23.364;2022-07-23T04:26:34;13.15;;;7.75;;
6133;SDS011;3098;42.678;23.364;2022-07-23T04:29:01;13.25;;;7.63;;
6133;SDS011;3098;42.678;23.364;2022-07-23T04:31:28;16.98;;;10.43;;
6133;SDS011;3098;42.678;23.364;2022-07-23T04:33:57;13.32;;;8.32;;
6133;SDS011;3098;42.678;23.364;2022-07-23T04:36:24;13.32;;;6.70;;
6133;SDS011;3098;42.678;23.364;2022-07-23T04:38:51;12.40;;;7.70;;
6133;SDS011;3098;42.678;23.364;2022-07-23T04:41:18;17.55;;;7.93;;
6133;SDS011;3098;42.678;23.364;2022-07-23T04:43:45;12.02;;;8.07;;
6133;SDS011;3098;42.678;23.364;2022-07-23T04:46:12;10.55;;;7.53;;
6133;SDS011;3098;42.678;23.364;2022-07-23T04:48:39;9.52;;;7.28;;
6133;SDS011;3098;42.678;23.364;2022-07-23T04:51:09;9.43;;;6.63;;
6133;SDS011;3098;42.678;23.364;2022-07-23T04:53:36;17.00;;;8.15;;
6133;SDS011;3098;42.678;23.364;2022-07-23T04:56:04;10.60;;;7.07;;
6133;SDS011;3098;42.678;23.364;2022-07-23T04:58:32;15.75;;;7.28;;
6133;SDS011;3098;42.678;23.364;2022-07-23T05:00:59;13.50;;;7.10;;
6133;SDS011;3098;42.678;23.364;2022-07-23T05:03:26;10.27;;;7.00;;
6133;SDS011;3098;42.678;23.364;2022-07-23T05:05:53;9.10;;;7.05;;
6133;SDS011;3098;42.678;23.364;2022-07-23T05:08:22;19.50;;;9.63;;
6133;SDS011;3098;42.678;23.364;2022-07-23T05:10:49;14.15;;;7.88;;
6133;SDS011;3098;42.678;23.364;2022-07-23T05:13:16;19.27;;;13.07;;
6133;SDS011;3098;42.678;23.364;2022-07-23T05:15:44;11.40;;;7.28;;
6133;SDS011;3098;42.678;23.364;2022-07-23T05:18:11;15.77;;;7.45;;
6133;SDS011;3098;42.678;23.364;2022-07-23T05:20:39;14.38;;;9.45;;
6133;SDS011;3098;42.678;23.364;2022-07-23T05:23:06;13.82;;;7.20;;
6133;SDS011;3098;42.678;23.364;2022-07-23T05:25:36;12.02;;;7.40;;
6133;SDS011;3098;42.678;23.364;2022-07-23T05:28:04;20.35;;;11.95;;
6133;SDS011;3098;42.678;23.364;2022-07-23T05:30:30;15.02;;;8.27;;
6133;SDS011;3098;42.678;23.364;2022-07-23T05:32:57;12.27;;;8.02;;
6133;SDS011;3098;42.678;23.364;2022-07-23T05:35:25;16.73;;;7.65;;
6133;SDS011;3098;42.678;23.364;2022-07-23T05:37:52;12.75;;;6.95;;
6133;SDS011;3098;42.678;23.364;2022-07-23T05:40:19;12.70;;;7.40;;
6133;SDS011;3098;42.678;23.364;2022-07-23T05:42:53;17.80;;;9.60;;
6133;SDS011;3098;42.678;23.364;2022-07-23T05:45:29;11.43;;;7.50;;
6133;SDS011;3098;42.678;23.364;2022-07-23T05:47:57;11.05;;;7.50;;
6133;SDS011;3098;42.678;23.364;2022-07-23T05:50:25;13.05;;;7.72;;
6133;SDS011;3098;42.678;23.364;2022-07-23T05:52:53;13.95;;;7.60;;
6133;SDS011;3098;42.678;23.364;2022-07-23T05:55:21;10.15;;;7.43;;
6133;SDS011;3098;42.678;23.364;2022-07-23T05:57:49;10.73;;;7.10;;
6133;SDS011;3098;42.678;23.364;2022-07-23T06:00:17;11.75;;;7.70;;
6133;SDS011;3098;42.678;23.364;2022-07-23T06:02:45;13.35;;;7.60;;
6133;SDS011;3098;42.678;23.364;2022-07-23T06:05:13;13.32;;;7.88;;
6133;SDS011;3098;42.678;23.364;2022-07-23T06:07:40;19.80;;;7.45;;
6133;SDS011;3098;42.678;23.364;2022-07-23T06:10:08;13.88;;;7.80;;
6133;SDS011;3098;42.678;23.364;2022-07-23T06:12:36;14.07;;;7.60;;
6133;SDS011;3098;42.678;23.364;2022-07-23T06:15:03;17.63;;;8.02;;
6133;SDS011;3098;42.678;23.364;2022-07-23T06:17:33;15.38;;;7.47;;
6133;SDS011;3098;42.678;23.364;2022-07-23T06:20:01;14.85;;;7.90;;
6133;SDS011;3098;42.678;23.364;2022-07-23T06:22:28;10.52;;;7.72;;
6133;SDS011;3098;42.678;23.364;2022-07-23T06:24:55;14.90;;;8.40;;
6133;SDS011;3098;42.678;23.364;2022-07-23T06:27:23;14.88;;;7.72;;
6133;SDS011;3098;42.678;23.364;2022-07-23T06:29:50;16.05;;;8.43;;
6133;SDS011;3098;42.678;23.364;2022-07-23T06:32:17;14.20;;;7.75;;
6133;SDS011;3098;42.678;23.364;2022-07-23T06:34:45;13.18;;;7.78;;
6133;SDS011;3098;42.678;23.364;2022-07-23T06:37:12;11.25;;;7.75;;
6133;SDS011;3098;42.678;23.364;2022-07-23T06:39:40;17.83;;;8.32;;
6133;SDS011;3098;42.678;23.364;2022-07-23T06:42:06;16.38;;;8.52;;
6133;SDS011;3098;42.678;23.364;2022-07-23T06:44:35;17.50;;;8.32;;
6133;SDS011;3098;42.678;23.364;2022-07-23T06:47:02;17.67;;;8.88;;
6133;SDS011;3098;42.678;23.364;2022-07-23T06:49:30;17.15;;;7.88;;
6133;SDS011;3098;42.678;23.364;2022-07-23T06:51:58;12.18;;;7.00;;
6133;SDS011;3098;42.678;23.364;2022-07-23T06:54:25;18.83;;;8.23;;
6133;SDS011;3098;42.678;23.364;2022-07-23T06:56:52;12.52;;;7.35;;
6133;SDS011;3098;42.678;23.364;2022-07-23T06:59:20;19.20;;;10.88;;
6133;SDS011;3098;42.678;23.364;2022-07-23T07:01:47;15.77;;;9.32;;
6133;SDS011;3098;42.678;23.364;2022-07-23T07:04:14;14.48;;;7.32;;
6133;SDS011;3098;42.678;23.364;2022-07-23T07:06:41;14.95;;;7.13;;
6133;SDS011;3098;42.678;23.364;2022-07-23T07:09:10;15.07;;;8.45;;
6133;SDS011;3098;42.678;23.364;2022-07-23T07:11:37;12.70;;;7.20;;
6133;SDS011;3098;42.678;23.364;2022-07-23T07:14:04;13.68;;;7.43;;
6133;SDS011;3098;42.678;23.364;2022-07-23T07:16:32;12.70;;;7.72;;
6133;SDS011;3098;42.678;23.364;2022-07-23T07:18:59;11.27;;;7.40;;
6133;SDS011;3098;42.678;23.364;2022-07-23T07:21:26;11.55;;;7.53;;
6133;SDS011;3098;42.678;23.364;2022-07-23T07:23:53;15.40;;;7.78;;
6133;SDS011;3098;42.678;23.364;2022-07-23T07:26:22;16.13;;;8.60;;
6133;SDS011;3098;42.678;23.364;2022-07-23T07:28:49;13.80;;;7.50;;
6133;SDS011;3098;42.678;23.364;2022-07-23T07:31:16;10.93;;;6.93;;
6133;SDS011;3098;42.678;23.364;2022-07-23T07:33:43;15.95;;;7.35;;
6133;SDS011;3098;42.678;23.364;2022-07-23T07:36:11;11.23;;;7.50;;
6133;SDS011;3098;42.678;23.364;2022-07-23T07:38:38;14.45;;;7.97;;
6133;SDS011;3098;42.678;23.364;2022-07-23T07:41:05;17.40;;;9.68;;
6133;SDS011;3098;42.678;23.364;2022-07-23T07:43:36;13.32;;;7.88;;
6133;SDS011;3098;42.678;23.364;2022-07-23T07:46:03;14.32;;;8.95;;
6133;SDS011;3098;42.678;23.364;2022-07-23T07:48:34;12.85;;;8.38;;
6133;SDS011;3098;42.678;23.364;2022-07-23T07:51:02;14.15;;;9.05;;
6133;SDS011;3098;42.678;23.364;2022-07-23T07:53:29;15.52;;;8.07;;
6133;SDS011;3098;42.678;23.364;2022-07-23T07:55:56;16.02;;;8.50;;
6133;SDS011;3098;42.678;23.364;2022-07-23T07:58:23;23.08;;;9.32;;
6133;SDS011;3098;42.678;23.364;2022-07-23T08:00:52;12.80;;;9.38;;
6133;SDS011;3098;42.678;23.364;2022-07-23T08:03:20;16.55;;;8.63;;
6133;SDS011;3098;42.678;23.364;2022-07-23T08:05:47;15.82;;;9.50;;
6133;SDS011;3098;42.678;23.364;2022-07-23T08:08:15;26.48;;;9.23;;
6133;SDS011;3098;42.678;23.364;2022-07-23T08:10:42;22.33;;;8.90;;
6133;SDS011;3098;42.678;23.364;2022-07-23T08:13:12;13.60;;;9.25;;
6133;SDS011;3098;42.678;23.364;2022-07-23T08:15:41;15.88;;;8.50;;
6133;SDS011;3098;42.678;23.364;2022-07-23T08:18:10;20.52;;;8.80;;
6133;SDS011;3098;42.678;23.364;2022-07-23T08:20:38;13.23;;;8.25;;
6133;SDS011;3098;42.678;23.364;2022-07-23T08:23:07;16.08;;;9.38;;
6133;SDS011;3098;42.678;23.364;2022-07-23T08:25:36;20.10;;;8.35;;
6133;SDS011;3098;42.678;23.364;2022-07-23T08:28:05;16.90;;;8.60;;
6133;SDS011;3098;42.678;23.364;2022-07-23T08:30:33;20.40;;;8.93;;
6133;SDS011;3098;42.678;23.364;2022-07-23T08:33:01;14.65;;;8.00;;
6133;SDS011;3098;42.678;23.364;2022-07-23T08:35:31;15.15;;;8.35;;
6133;SDS011;3098;42.678;23.364;2022-07-23T08:37:59;11.07;;;7.90;;
6133;SDS011;3098;42.678;23.364;2022-07-23T08:40:28;21.08;;;9.48;;
6133;SDS011;3098;42.678;23.364;2022-07-23T08:42:56;32.75;;;9.02;;
6133;SDS011;3098;42.678;23.364;2022-07-23T08:45:23;13.50;;;8.55;;
6133;SDS011;3098;42.678;23.364;2022-07-23T08:47:52;14.07;;;7.75;;
6133;SDS011;3098;42.678;23.364;2022-07-23T08:50:21;12.95;;;8.55;;
6133;SDS011;3098;42.678;23.364;2022-07-23T08:52:51;18.85;;;9.00;;
6133;SDS011;3098;42.678;23.364;2022-07-23T08:55:20;21.55;;;8.63;;
6133;SDS011;3098;42.678;23.364;2022-07-23T08:57:49;12.48;;;7.72;;
6133;SDS011;3098;42.678;23.364;2022-07-23T09:00:18;12.38;;;7.70;;
6133;SDS011;3098;42.678;23.364;2022-07-23T09:02:46;10.10;;;7.63;;
6133;SDS011;3098;42.678;23.364;2022-07-23T09:05:14;9.88;;;7.32;;
6133;SDS011;3098;42.678;23.364;2022-07-23T09:10:43;11.35;;;8.30;;
6133;SDS011;3098;42.678;23.364;2022-07-23T09:16:08;9.95;;;7.65;;
6133;SDS011;3098;42.678;23.364;2022-07-23T09:18:39;12.00;;;7.43;;
6133;SDS011;3098;42.678;23.364;2022-07-23T09:21:19;15.68;;;8.98;;
6133;SDS011;3098;42.678;23.364;2022-07-23T09:23:58;15.93;;;8.20;;
6133;SDS011;3098;42.678;23.364;2022-07-23T09:26:31;12.52;;;7.88;;
6133;SDS011;3098;42.678;23.364;2022-07-23T09:29:11;12.95;;;8.05;;
6133;SDS011;3098;42.678;23.364;2022-07-23T09:31:44;16.05;;;8.07;;
6133;SDS011;3098;42.678;23.364;2022-07-23T09:34:15;15.38;;;6.88;;
6133;SDS011;3098;42.678;23.364;2022-07-23T09:36:43;13.93;;;8.00;;
6133;SDS011;3098;42.678;23.364;2022-07-23T09:39:15;14.38;;;7.88;;
6133;SDS011;3098;42.678;23.364;2022-07-23T09:41:51;16.67;;;7.80;;
6133;SDS011;3098;42.678;23.364;2022-07-23T09:44:18;17.27;;;8.30;;
6133;SDS011;3098;42.678;23.364;2022-07-23T09:46:48;16.13;;;7.72;;
6133;SDS011;3098;42.678;23.364;2022-07-23T09:49:16;11.85;;;8.00;;
6133;SDS011;3098;42.678;23.364;2022-07-23T09:51:45;14.15;;;8.27;;
6133;SDS011;3098;42.678;23.364;2022-07-23T09:54:23;13.02;;;7.35;;
6133;SDS011;3098;42.678;23.364;2022-07-23T09:56:56;12.20;;;6.90;;
6133;SDS011;3098;42.678;23.364;2022-07-23T09:59:25;11.85;;;7.47;;
6133;SDS011;3098;42.678;23.364;2022-07-23T10:01:53;12.02;;;6.38;;
6133;SDS011;3098;42.678;23.364;2022-07-23T10:04:22;12.55;;;6.45;;
6133;SDS011;3098;42.678;23.364;2022-07-23T10:06:51;12.50;;;6.70;;
6133;SDS011;3098;42.678;23.364;2022-07-23T10:09:24;15.63;;;6.95;;
6133;SDS011;3098;42.678;23.364;2022-07-23T10:11:58;9.88;;;6.35;;
6133;SDS011;3098;42.678;23.364;2022-07-23T10:14:31;10.52;;;6.93;;
6133;SDS011;3098;42.678;23.364;2022-07-23T10:17:00;14.85;;;7.13;;
6133;SDS011;3098;42.678;23.364;2022-07-23T10:19:27;15.77;;;6.82;;
6133;SDS011;3098;42.678;23.364;2022-07-23T10:21:56;12.70;;;7.13;;
6133;SDS011;3098;42.678;23.364;2022-07-23T10:30:39;10.30;;;6.53;;
6133;SDS011;3098;42.678;23.364;2022-07-23T10:36:02;10.25;;;5.82;;
6133;SDS011;3098;42.678;23.364;2022-07-23T10:38:35;10.85;;;5.22;;
6133;SDS011;3098;42.678;23.364;2022-07-23T10:41:10;8.85;;;5.65;;
6133;SDS011;3098;42.678;23.364;2022-07-23T10:43:41;13.82;;;7.30;;
6133;SDS011;3098;42.678;23.364;2022-07-23T10:46:22;11.70;;;6.78;;
6133;SDS011;3098;42.678;23.364;2022-07-23T10:54:45;12.68;;;6.30;;
6133;SDS011;3098;42.678;23.364;2022-07-23T10:57:17;14.52;;;8.20;;
6133;SDS011;3098;42.678;23.364;2022-07-23T11:02:47;11.40;;;7.05;;
6133;SDS011;3098;42.678;23.364;2022-07-23T11:05:16;10.00;;;6.25;;
6133;SDS011;3098;42.678;23.364;2022-07-23T11:10:48;15.02;;;6.15;;
6133;SDS011;3098;42.678;23.364;2022-07-23T11:13:31;14.10;;;6.80;;
6133;SDS011;3098;42.678;23.364;2022-07-23T11:16:08;19.95;;;10.13;;
6133;SDS011;3098;42.678;23.364;2022-07-23T11:18:53;17.85;;;7.43;;
6133;SDS011;3098;42.678;23.364;2022-07-23T11:21:42;11.02;;;5.90;;
6133;SDS011;3098;42.678;23.364;2022-07-23T11:24:14;14.18;;;6.15;;
6133;SDS011;3098;42.678;23.364;2022-07-23T11:29:42;13.50;;;6.85;;
6133;SDS011;3098;42.678;23.364;2022-07-23T11:32:22;16.27;;;7.25;;
6133;SDS011;3098;42.678;23.364;2022-07-23T11:35:20;20.95;;;6.38;;
6133;SDS011;3098;42.678;23.364;2022-07-23T11:37:49;12.55;;;5.75;;
6133;SDS011;3098;42.678;23.364;2022-07-23T11:40:23;12.68;;;5.15;;
6133;SDS011;3098;42.678;23.364;2022-07-23T11:42:51;15.60;;;5.78;;
6133;SDS011;3098;42.678;23.364;2022-07-23T11:45:22;14.55;;;5.60;;
6133;SDS011;3098;42.678;23.364;2022-07-23T11:47:50;9.80;;;5.88;;
6133;SDS011;3098;42.678;23.364;2022-07-23T11:50:17;14.13;;;5.18;;
6133;SDS011;3098;42.678;23.364;2022-07-23T11:52:45;14.40;;;6.25;;
6133;SDS011;3098;42.678;23.364;2022-07-23T11:55:12;8.13;;;5.13;;
6133;SDS011;3098;42.678;23.364;2022-07-23T11:57:41;14.25;;;7.18;;
6133;SDS011;3098;42.678;23.364;2022-07-23T12:00:10;18.98;;;6.03;;
6133;SDS011;3098;42.678;23.364;2022-07-23T12:02:40;17.10;;;6.28;;
6133;SDS011;3098;42.678;23.364;2022-07-23T12:05:09;24.27;;;6.07;;
6133;SDS011;3098;42.678;23.364;2022-07-23T12:07:39;13.13;;;5.65;;
6133;SDS011;3098;42.678;23.364;2022-07-23T12:10:12;27.05;;;6.28;;
6133;SDS011;3098;42.678;23.364;2022-07-23T12:12:41;10.40;;;5.30;;
6133;SDS011;3098;42.678;23.364;2022-07-23T12:15:09;13.40;;;4.78;;
6133;SDS011;3098;42.678;23.364;2022-07-23T12:17:38;24.25;;;5.22;;
6133;SDS011;3098;42.678;23.364;2022-07-23T12:20:10;15.73;;;6.72;;
6133;SDS011;3098;42.678;23.364;2022-07-23T12:22:40;16.70;;;5.63;;
6133;SDS011;3098;42.678;23.364;2022-07-23T12:25:09;14.32;;;5.40;;
6133;SDS011;3098;42.678;23.364;2022-07-23T12:27:38;17.95;;;5.63;;
6133;SDS011;3098;42.678;23.364;2022-07-23T12:30:22;11.82;;;5.82;;
6133;SDS011;3098;42.678;23.364;2022-07-23T12:32:53;20.67;;;6.85;;
6133;SDS011;3098;42.678;23.364;2022-07-23T12:35:22;17.08;;;5.47;;
6133;SDS011;3098;42.678;23.364;2022-07-23T12:37:59;13.52;;;5.88;;
6133;SDS011;3098;42.678;23.364;2022-07-23T12:40:28;15.27;;;6.40;;
6133;SDS011;3098;42.678;23.364;2022-07-23T12:42:57;18.60;;;7.00;;
6133;SDS011;3098;42.678;23.364;2022-07-23T12:45:26;14.18;;;5.30;;
6133;SDS011;3098;42.678;23.364;2022-07-23T12:48:02;12.38;;;5.95;;
6133;SDS011;3098;42.678;23.364;2022-07-23T12:50:38;15.02;;;5.47;;
6133;SDS011;3098;42.678;23.364;2022-07-23T12:53:09;17.10;;;6.00;;
6133;SDS011;3098;42.678;23.364;2022-07-23T12:55:38;13.65;;;5.88;;
6133;SDS011;3098;42.678;23.364;2022-07-23T12:58:16;12.23;;;6.00;;
6133;SDS011;3098;42.678;23.364;2022-07-23T13:00:52;16.10;;;6.00;;
6133;SDS011;3098;42.678;23.364;2022-07-23T13:03:27;23.05;;;5.97;;
6133;SDS011;3098;42.678;23.364;2022-07-23T13:05:57;14.75;;;5.70;;
6133;SDS011;3098;42.678;23.364;2022-07-23T13:08:25;10.15;;;5.07;;
6133;SDS011;3098;42.678;23.364;2022-07-23T13:10:54;14.32;;;5.85;;
6133;SDS011;3098;42.678;23.364;2022-07-23T13:13:25;19.70;;;5.63;;
6133;SDS011;3098;42.678;23.364;2022-07-23T13:15:56;13.02;;;6.10;;
6133;SDS011;3098;42.678;23.364;2022-07-23T13:18:30;11.75;;;5.97;;
6133;SDS011;3098;42.678;23.364;2022-07-23T13:20:58;19.88;;;5.70;;
6133;SDS011;3098;42.678;23.364;2022-07-23T13:23:29;15.57;;;6.10;;
6133;SDS011;3098;42.678;23.364;2022-07-23T13:25:59;9.68;;;5.55;;
6133;SDS011;3098;42.678;23.364;2022-07-23T13:28:27;19.58;;;6.80;;
6133;SDS011;3098;42.678;23.364;2022-07-23T13:30:57;18.00;;;6.28;;
6133;SDS011;3098;42.678;23.364;2022-07-23T13:33:25;14.60;;;5.97;;
6133;SDS011;3098;42.678;23.364;2022-07-23T13:35:56;15.35;;;5.72;;
6133;SDS011;3098;42.678;23.364;2022-07-23T13:38:26;22.40;;;6.43;;
6133;SDS011;3098;42.678;23.364;2022-07-23T13:40:57;16.65;;;5.75;;
6133;SDS011;3098;42.678;23.364;2022-07-23T13:43:29;11.90;;;5.13;;
6133;SDS011;3098;42.678;23.364;2022-07-23T13:45:57;12.75;;;5.60;;
6133;SDS011;3098;42.678;23.364;2022-07-23T13:48:26;19.00;;;5.80;;
6133;SDS011;3098;42.678;23.364;2022-07-23T13:50:58;18.13;;;5.57;;
6133;SDS011;3098;42.678;23.364;2022-07-23T13:53:25;20.55;;;6.70;;
6133;SDS011;3098;42.678;23.364;2022-07-23T13:55:54;21.77;;;6.60;;
6133;SDS011;3098;42.678;23.364;2022-07-23T13:58:24;13.07;;;5.57;;
6133;SDS011;3098;42.678;23.364;2022-07-23T14:00:53;16.13;;;4.93;;
6133;SDS011;3098;42.678;23.364;2022-07-23T14:03:24;14.20;;;6.05;;
6133;SDS011;3098;42.678;23.364;2022-07-23T14:05:55;12.18;;;5.43;;
6133;SDS011;3098;42.678;23.364;2022-07-23T14:08:25;18.40;;;5.25;;
6133;SDS011;3098;42.678;23.364;2022-07-23T14:10:53;12.98;;;6.25;;
6133;SDS011;3098;42.678;23.364;2022-07-23T14:13:20;12.52;;;6.13;;
6133;SDS011;3098;42.678;23.364;2022-07-23T14:15:48;10.43;;;5.93;;
6133;SDS011;3098;42.678;23.364;2022-07-23T14:18:19;14.98;;;5.38;;
6133;SDS011;3098;42.678;23.364;2022-07-23T14:20:46;13.85;;;5.80;;
6133;SDS011;3098;42.678;23.364;2022-07-23T14:23:15;15.40;;;4.82;;
6133;SDS011;3098;42.678;23.364;2022-07-23T14:25:48;26.42;;;10.05;;
6133;SDS011;3098;42.678;23.364;2022-07-23T14:28:16;16.38;;;6.07;;
6133;SDS011;3098;42.678;23.364;2022-07-23T14:30:44;12.63;;;7.10;;
6133;SDS011;3098;42.678;23.364;2022-07-23T14:33:12;17.10;;;6.45;;
6133;SDS011;3098;42.678;23.364;2022-07-23T14:35:43;15.27;;;5.60;;
6133;SDS011;3098;42.678;23.364;2022-07-23T14:38:13;14.27;;;5.78;;
6133;SDS011;3098;42.678;23.364;2022-07-23T14:40:45;19.90;;;5.78;;
6133;SDS011;3098;42.678;23.364;2022-07-23T14:43:22;16.85;;;5.35;;
6133;SDS011;3098;42.678;23.364;2022-07-23T14:45:54;19.65;;;5.40;;
6133;SDS011;3098;42.678;23.364;2022-07-23T14:48:21;12.77;;;5.15;;
6133;SDS011;3098;42.678;23.364;2022-07-23T14:50:50;13.48;;;5.18;;
6133;SDS011;3098;42.678;23.364;2022-07-23T14:53:20;17.27;;;5.78;;
6133;SDS011;3098;42.678;23.364;2022-07-23T14:55:58;12.55;;;5.05;;
6133;SDS011;3098;42.678;23.364;2022-07-23T14:58:32;14.63;;;5.13;;
6133;SDS011;3098;42.678;23.364;2022-07-23T15:01:05;20.48;;;5.55;;
6133;SDS011;3098;42.678;23.364;2022-07-23T15:03:33;13.68;;;5.22;;
6133;SDS011;3098;42.678;23.364;2022-07-23T15:06:09;12.88;;;5.40;;
6133;SDS011;3098;42.678;23.364;2022-07-23T15:08:43;11.23;;;5.20;;
6133;SDS011;3098;42.678;23.364;2022-07-23T15:11:26;13.07;;;5.35;;
6133;SDS011;3098;42.678;23.364;2022-07-23T15:13:58;11.70;;;5.47;;
6133;SDS011;3098;42.678;23.364;2022-07-23T15:16:27;17.15;;;6.28;;
6133;SDS011;3098;42.678;23.364;2022-07-23T15:19:06;12.60;;;6.38;;
6133;SDS011;3098;42.678;23.364;2022-07-23T15:21:38;14.32;;;6.88;;
6133;SDS011;3098;42.678;23.364;2022-07-23T15:24:14;14.35;;;6.88;;
6133;SDS011;3098;42.678;23.364;2022-07-23T15:26:44;12.02;;;6.70;;
6133;SDS011;3098;42.678;23.364;2022-07-23T15:29:12;13.38;;;6.20;;